Time;durP1;ratioP1;P1;durP2;ratioP2;P2;SDS_P1;SDS_P2;PMS_P1;PMS_P2;Temp;Humidity;BMP_temperature;BMP_pressure;BME280_temperature;BME280_humidity;BME280_pressure;Samples;Min_cycle;Max_cycle;Signal;HPM_P1;HPM_P2
2022/10/04 00:01:10;;;;;;;10.80;3.88;;;;;;;;;;4964069;28;20113;-76
2022/10/04 00:03:37;;;;;;;7.20;3.58;;;;;;;;;;4954271;28;20125;-76
2022/10/04 00:06:06;;;;;;;4.80;3.42;;;;;;;;;;4959270;28;20078;-76
2022/10/04 00:08:53;;;;;;;2.88;2.67;;;;;;;;;;4967715;28;20526;-76
2022/10/04 00:11:31;;;;;;;3.80;2.83;;;;;;;;;;4969291;28;20470;-75
2022/10/04 00:14:00;;;;;;;3.22;2.88;;;;;;;;;;4962479;28;20503;-75
2022/10/04 00:16:32;;;;;;;4.38;2.90;;;;;;;;;;4957038;28;20046;-77
2022/10/04 00:19:01;;;;;;;4.15;2.65;;;;;;;;;;4968972;28;20039;-77
2022/10/04 00:21:48;;;;;;;3.20;2.88;;;;;;;;;;4969493;28;20105;-77
2022/10/04 00:24:22;;;;;;;2.88;2.63;;;;;;;;;;4969417;28;20062;-78
2022/10/04 00:26:50;;;;;;;3.13;2.65;;;;;;;;;;4968744;28;20641;-76
2022/10/04 00:29:43;;;;;;;5.47;2.85;;;;;;;;;;4968076;28;20360;-75
2022/10/04 00:32:11;;;;;;;5.68;2.72;;;;;;;;;;4966387;28;20050;-75
2022/10/04 00:34:46;;;;;;;3.95;2.75;;;;;;;;;;4963605;28;20417;-76
2022/10/04 00:37:15;;;;;;;5.30;2.40;;;;;;;;;;4968182;28;20256;-76
2022/10/04 00:39:43;;;;;;;5.55;3.05;;;;;;;;;;4969381;28;20050;-77
2022/10/04 00:42:23;;;;;;;2.90;2.55;;;;;;;;;;4969430;28;20059;-75
2022/10/04 00:44:54;;;;;;;5.28;3.03;;;;;;;;;;4983755;28;20057;-75
2022/10/04 00:47:31;;;;;;;5.60;3.15;;;;;;;;;;4968105;28;20419;-75
2022/10/04 00:50:16;;;;;;;6.32;2.75;;;;;;;;;;4966863;28;20051;-78
2022/10/04 00:52:47;;;;;;;4.18;3.20;;;;;;;;;;4965700;28;20074;-75
2022/10/04 00:55:20;;;;;;;7.03;3.30;;;;;;;;;;4967020;28;20403;-75
2022/10/04 00:57:50;;;;;;;3.97;2.90;;;;;;;;;;4968326;28;20070;-75
2022/10/04 01:00:20;;;;;;;9.27;3.47;;;;;;;;;;4968214;28;20061;-77
2022/10/04 01:02:51;;;;;;;9.43;3.20;;;;;;;;;;4967475;28;20047;-78
2022/10/04 01:05:26;;;;;;;3.60;3.30;;;;;;;;;;4966448;28;20526;-75
2022/10/04 01:07:57;;;;;;;19.77;3.42;;;;;;;;;;4966781;28;20046;-76
2022/10/04 01:10:30;;;;;;;11.82;3.40;;;;;;;;;;4968299;28;20066;-76
2022/10/04 01:13:07;;;;;;;4.80;2.85;;;;;;;;;;4967203;28;20039;-77
2022/10/04 01:15:38;;;;;;;5.75;3.40;;;;;;;;;;4966791;28;20393;-75
2022/10/04 01:18:14;;;;;;;4.50;3.50;;;;;;;;;;4968539;28;20078;-76
2022/10/04 01:21:01;;;;;;;3.42;3.10;;;;;;;;;;4966676;28;20050;-75
2022/10/04 01:23:43;;;;;;;5.90;3.42;;;;;;;;;;4966301;28;20061;-76
2022/10/04 01:26:29;;;;;;;5.55;2.55;;;;;;;;;;4962105;28;20035;-75
2022/10/04 01:28:57;;;;;;;3.30;3.00;;;;;;;;;;4963921;28;20047;-75
2022/10/04 01:31:25;;;;;;;6.90;3.33;;;;;;;;;;4963460;28;20574;-76
2022/10/04 01:33:54;;;;;;;3.13;2.80;;;;;;;;;;4967728;28;20125;-77
2022/10/04 01:36:21;;;;;;;3.33;3.03;;;;;;;;;;4968313;28;20137;-78
2022/10/04 01:38:49;;;;;;;3.88;2.90;;;;;;;;;;4968047;28;20058;-75
2022/10/04 01:41:19;;;;;;;6.32;2.70;;;;;;;;;;4963146;28;20117;-75
2022/10/04 01:43:50;;;;;;;5.20;3.03;;;;;;;;;;4966630;28;20054;-75
2022/10/04 01:46:20;;;;;;;4.57;3.47;;;;;;;;;;4967433;28;20047;-75
2022/10/04 01:48:47;;;;;;;4.60;3.05;;;;;;;;;;4944035;28;20065;-75
2022/10/04 01:51:23;;;;;;;4.88;2.75;;;;;;;;;;4965831;28;20141;-76
2022/10/04 01:53:54;;;;;;;18.35;3.08;;;;;;;;;;4968235;28;20101;-76
2022/10/04 01:56:31;;;;;;;7.53;3.03;;;;;;;;;;4966149;28;20137;-76
2022/10/04 01:59:04;;;;;;;7.35;3.03;;;;;;;;;;4961214;28;20081;-76
2022/10/04 02:01:34;;;;;;;3.90;3.13;;;;;;;;;;4964523;28;20565;-75
2022/10/04 02:04:07;;;;;;;12.23;3.08;;;;;;;;;;4968396;28;20549;-76
2022/10/04 02:06:37;;;;;;;9.38;2.72;;;;;;;;;;4966616;28;20047;-77
2022/10/04 02:09:19;;;;;;;7.47;2.75;;;;;;;;;;4935695;28;20047;-75
2022/10/04 02:11:51;;;;;;;2.63;2.42;;;;;;;;;;4951063;28;20391;-75
2022/10/04 02:14:21;;;;;;;12.20;2.45;;;;;;;;;;4968042;28;20070;-76
2022/10/04 02:16:53;;;;;;;8.88;2.80;;;;;;;;;;4966200;28;20380;-76
2022/10/04 02:19:22;;;;;;;8.45;2.78;;;;;;;;;;4966439;28;20482;-75
2022/10/04 02:21:51;;;;;;;12.60;2.83;;;;;;;;;;4968648;28;20491;-76
2022/10/04 02:24:19;;;;;;;6.28;2.85;;;;;;;;;;4966292;28;20522;-75
2022/10/04 02:26:50;;;;;;;12.25;2.88;;;;;;;;;;4964308;28;20094;-76
2022/10/04 02:29:21;;;;;;;8.60;2.72;;;;;;;;;;4966869;28;20049;-75
2022/10/04 02:34:37;;;;;;;9.40;2.60;;;;;;;;;;4960648;28;20050;-78
2022/10/04 02:37:05;;;;;;;6.90;2.50;;;;;;;;;;4967398;28;20074;-75
2022/10/04 02:39:44;;;;;;;14.02;3.13;;;;;;;;;;4966599;28;20054;-76
2022/10/04 02:42:26;;;;;;;18.52;3.17;;;;;;;;;;4967711;28;20035;-76
2022/10/04 02:45:04;;;;;;;54.35;3.33;;;;;;;;;;4967800;28;20057;-75
2022/10/04 02:47:38;;;;;;;42.08;3.90;;;;;;;;;;4964055;28;20062;-75
2022/10/04 02:50:09;;;;;;;37.42;3.72;;;;;;;;;;4965033;28;20216;-75
2022/10/04 02:52:39;;;;;;;25.40;3.40;;;;;;;;;;4968049;28;20575;-75
2022/10/04 02:55:06;;;;;;;17.02;2.80;;;;;;;;;;4949051;28;20042;-75
2022/10/04 02:57:34;;;;;;;11.02;3.05;;;;;;;;;;4950082;28;20165;-77
2022/10/04 03:00:20;;;;;;;10.85;3.22;;;;;;;;;;4966221;28;20339;-75
2022/10/04 03:03:17;;;;;;;7.18;2.60;;;;;;;;;;4967447;28;20050;-75
2022/10/04 03:05:46;;;;;;;3.42;2.42;;;;;;;;;;4955507;28;20055;-76
2022/10/04 03:08:14;;;;;;;5.45;2.90;;;;;;;;;;4963787;28;20102;-75
2022/10/04 03:10:41;;;;;;;3.67;2.80;;;;;;;;;;4966707;28;20130;-75
2022/10/04 03:13:09;;;;;;;4.63;2.75;;;;;;;;;;4965249;28;20109;-75
2022/10/04 03:15:37;;;;;;;2.70;2.50;;;;;;;;;;4966610;28;20046;-78
2022/10/04 03:18:05;;;;;;;4.13;2.90;;;;;;;;;;4966049;28;20051;-75
2022/10/04 03:20:36;;;;;;;3.30;3.00;;;;;;;;;;4966823;28;20138;-75
2022/10/04 03:23:04;;;;;;;3.17;2.85;;;;;;;;;;4966743;28;20503;-78
2022/10/04 03:25:41;;;;;;;3.13;2.53;;;;;;;;;;4961589;28;20035;-75
2022/10/04 03:28:08;;;;;;;3.25;2.95;;;;;;;;;;4965604;28;20262;-75
2022/10/04 03:30:36;;;;;;;3.67;2.78;;;;;;;;;;4966382;28;20458;-75
2022/10/04 03:33:04;;;;;;;9.00;2.78;;;;;;;;;;4963994;28;20061;-75
2022/10/04 03:35:34;;;;;;;4.70;2.90;;;;;;;;;;4964788;28;20050;-76
2022/10/04 03:38:05;;;;;;;5.82;2.67;;;;;;;;;;4964725;28;20132;-76
2022/10/04 03:40:33;;;;;;;2.63;2.30;;;;;;;;;;4960703;28;20732;-76
2022/10/04 03:43:01;;;;;;;6.13;2.70;;;;;;;;;;4969883;28;20066;-76
2022/10/04 03:45:31;;;;;;;6.65;2.45;;;;;;;;;;4970121;28;20387;-75
2022/10/04 03:48:04;;;;;;;5.82;3.10;;;;;;;;;;4970743;28;20042;-76
2022/10/04 03:50:33;;;;;;;2.85;2.65;;;;;;;;;;4968586;28;20089;-76
2022/10/04 03:53:21;;;;;;;3.50;2.80;;;;;;;;;;4971482;28;20132;-78
2022/10/04 03:55:48;;;;;;;5.22;2.95;;;;;;;;;;4935429;28;20470;-75
2022/10/04 03:58:17;;;;;;;4.25;3.15;;;;;;;;;;4963578;28;20473;-75
2022/10/04 04:01:05;;;;;;;6.40;3.00;;;;;;;;;;4970403;28;20105;-75
2022/10/04 04:03:46;;;;;;;5.70;3.17;;;;;;;;;;4972400;28;20043;-75
2022/10/04 04:06:16;;;;;;;3.60;3.00;;;;;;;;;;4971043;28;20078;-78
2022/10/04 04:08:46;;;;;;;5.35;3.15;;;;;;;;;;4971907;28;20047;-77
2022/10/04 04:11:18;;;;;;;5.75;3.60;;;;;;;;;;4970951;28;20069;-76
2022/10/04 04:13:46;;;;;;;;;;;;;;;;;;4972662;28;20070;-76
2022/10/04 04:16:13;;;;;;;3.88;3.20;;;;;;;;;;4965639;28;19926;-75
2022/10/04 04:18:43;;;;;;;6.43;3.38;;;;;;;;;;4971736;28;20137;-75
2022/10/04 04:21:13;;;;;;;5.35;4.15;;;;;;;;;;4972548;28;20134;-75
2022/10/04 04:23:49;;;;;;;8.80;4.13;;;;;;;;;;4975428;28;20050;-77
2022/10/04 04:26:16;;;;;;;4.72;3.90;;;;;;;;;;4974717;28;20129;-77
2022/10/04 04:28:47;;;;;;;7.75;4.03;;;;;;;;;;4954776;28;20082;-76
2022/10/04 04:31:24;;;;;;;5.43;4.10;;;;;;;;;;4965624;28;20507;-78
2022/10/04 04:33:51;;;;;;;8.82;3.85;;;;;;;;;;4969962;28;20517;-77
2022/10/04 04:36:19;;;;;;;8.65;4.18;;;;;;;;;;4969116;28;20134;-76
2022/10/04 04:41:34;;;;;;;6.50;3.72;;;;;;;;;;4961629;28;20085;-73
2022/10/04 04:44:01;;;;;;;7.43;4.10;;;;;;;;;;4960955;28;20046;-73
2022/10/04 04:46:30;;;;;;;6.53;4.43;;;;;;;;;;4958847;28;20042;-73
2022/10/04 04:49:02;;;;;;;6.63;4.55;;;;;;;;;;4963078;28;20046;-72
2022/10/04 04:51:31;;;;;;;15.07;6.47;;;;;;;;;;4961684;28;20561;-73
2022/10/04 04:54:00;;;;;;;10.00;4.75;;;;;;;;;;4961730;28;20043;-73
2022/10/04 04:56:28;;;;;;;8.43;4.88;;;;;;;;;;4964892;28;20093;-73
2022/10/04 04:58:58;;;;;;;15.48;4.95;;;;;;;;;;4967856;28;20051;-73
2022/10/04 05:01:28;;;;;;;8.57;4.55;;;;;;;;;;4983221;28;20046;-74
2022/10/04 05:04:02;;;;;;;5.25;4.72;;;;;;;;;;4967274;28;20131;-73
2022/10/04 05:06:31;;;;;;;8.23;4.35;;;;;;;;;;4962750;28;20071;-73
2022/10/04 05:08:59;;;;;;;8.23;4.22;;;;;;;;;;4967868;28;20043;-74
2022/10/04 05:11:28;;;;;;;10.95;5.15;;;;;;;;;;4964929;28;20522;-73
2022/10/04 05:14:01;;;;;;;13.52;4.72;;;;;;;;;;4968097;28;20078;-73
2022/10/04 05:16:36;;;;;;;6.55;4.40;;;;;;;;;;4967712;28;20070;-73
2022/10/04 05:19:13;;;;;;;7.85;5.13;;;;;;;;;;4951476;28;20053;-72
2022/10/04 05:21:43;;;;;;;11.23;5.03;;;;;;;;;;4965302;28;20066;-73
2022/10/04 05:24:19;;;;;;;9.45;4.82;;;;;;;;;;4968312;28;20625;-73
2022/10/04 05:26:52;;;;;;;6.22;4.68;;;;;;;;;;4966900;28;20109;-73
2022/10/04 05:29:21;;;;;;;9.50;4.57;;;;;;;;;;4951529;28;20149;-73
2022/10/04 05:31:53;;;;;;;12.50;5.45;;;;;;;;;;4963814;28;20150;-72
2022/10/04 05:34:35;;;;;;;7.10;4.82;;;;;;;;;;4966523;28;20038;-73
2022/10/04 05:37:11;;;;;;;12.65;5.07;;;;;;;;;;4966485;28;20088;-73
2022/10/04 05:39:45;;;;;;;10.70;5.53;;;;;;;;;;4968226;28;20089;-73
2022/10/04 05:42:25;;;;;;;13.05;7.85;;;;;;;;;;4968944;28;20045;-72
2022/10/04 05:44:56;;;;;;;9.40;4.93;;;;;;;;;;4964374;28;20054;-72
2022/10/04 05:47:28;;;;;;;7.28;5.75;;;;;;;;;;4950293;28;20050;-73
2022/10/04 05:49:57;;;;;;;9.52;5.63;;;;;;;;;;4967363;28;20043;-72
2022/10/04 05:52:24;;;;;;;8.50;5.65;;;;;;;;;;4967717;28;20035;-73
2022/10/04 05:55:11;;;;;;;8.82;5.80;;;;;;;;;;4964303;28;20085;-74
2022/10/04 05:57:42;;;;;;;10.60;5.47;;;;;;;;;;4965338;28;20097;-72
2022/10/04 06:00:20;;;;;;;7.55;5.40;;;;;;;;;;4967395;28;20098;-73
2022/10/04 06:03:05;;;;;;;7.68;5.72;;;;;;;;;;4966737;28;20177;-73
2022/10/04 06:05:51;;;;;;;6.88;5.07;;;;;;;;;;4962816;28;20054;-73
2022/10/04 06:08:33;;;;;;;7.38;4.88;;;;;;;;;;4966437;28;20046;-72
2022/10/04 06:11:01;;;;;;;7.07;5.90;;;;;;;;;;4967667;28;20510;-73
2022/10/04 06:13:34;;;;;;;10.07;5.32;;;;;;;;;;4959378;28;20423;-73
2022/10/04 06:16:25;;;;;;;8.90;5.65;;;;;;;;;;4966643;28;20101;-73
2022/10/04 06:19:02;;;;;;;8.65;4.82;;;;;;;;;;4965197;28;20353;-73
2022/10/04 06:21:52;;;;;;;8.02;4.75;;;;;;;;;;4967229;28;20051;-73
2022/10/04 06:24:27;;;;;;;5.65;4.78;;;;;;;;;;4950447;28;20121;-72
2022/10/04 06:26:59;;;;;;;5.75;4.80;;;;;;;;;;4966677;28;20038;-73
2022/10/04 06:29:29;;;;;;;7.57;5.13;;;;;;;;;;4968627;28;20042;-73
2022/10/04 06:32:11;;;;;;;11.07;6.32;;;;;;;;;;4968059;28;20039;-73
2022/10/04 06:34:45;;;;;;;8.63;5.03;;;;;;;;;;4968880;28;20071;-73
2022/10/04 06:37:15;;;;;;;8.38;5.60;;;;;;;;;;4967824;28;20046;-73
2022/10/04 06:39:43;;;;;;;6.63;5.43;;;;;;;;;;4968058;28;20051;-71
2022/10/04 06:42:20;;;;;;;6.95;4.70;;;;;;;;;;4967555;28;20327;-72
2022/10/04 06:44:51;;;;;;;5.25;4.75;;;;;;;;;;4949982;28;20384;-73
2022/10/04 06:47:18;;;;;;;6.70;4.75;;;;;;;;;;4967959;28;20065;-73
2022/10/04 06:49:53;;;;;;;7.15;5.65;;;;;;;;;;4968037;28;20053;-72
2022/10/04 06:52:25;;;;;;;6.60;5.40;;;;;;;;;;4967435;28;20127;-74
2022/10/04 06:55:16;;;;;;;8.73;5.32;;;;;;;;;;4967436;28;20053;-72
2022/10/04 06:57:51;;;;;;;5.60;5.10;;;;;;;;;;4968170;28;20053;-72
2022/10/04 07:00:23;;;;;;;6.40;5.55;;;;;;;;;;4968115;28;20133;-73
2022/10/04 07:02:50;;;;;;;;;;;;;;;;;;4968202;28;20446;-73
2022/10/04 07:05:36;;;;;;;6.53;5.93;;;;;;;;;;4967184;28;20476;-72
2022/10/04 07:08:29;;;;;;;8.15;5.78;;;;;;;;;;4967431;28;20062;-73
2022/10/04 07:11:17;;;;;;;8.63;4.97;;;;;;;;;;4967306;28;20171;-72
2022/10/04 07:13:44;;;;;;;8.18;5.55;;;;;;;;;;4970120;28;20118;-73
2022/10/04 07:16:25;;;;;;;7.18;6.20;;;;;;;;;;4970462;28;20574;-71
2022/10/04 07:18:59;;;;;;;6.30;5.50;;;;;;;;;;4970664;28;20043;-72
2022/10/04 07:21:45;;;;;;;7.78;5.50;;;;;;;;;;4967337;28;20634;-73
2022/10/04 07:24:19;;;;;;;7.10;5.22;;;;;;;;;;4950583;28;20039;-73
2022/10/04 07:26:48;;;;;;;8.98;5.72;;;;;;;;;;4950038;28;20423;-73
2022/10/04 07:29:23;;;;;;;6.57;5.22;;;;;;;;;;4967446;28;20069;-73
2022/10/04 07:32:11;;;;;;;6.13;5.53;;;;;;;;;;4967751;28;20581;-73
2022/10/04 07:34:49;;;;;;;7.63;6.07;;;;;;;;;;4965858;28;20054;-72
2022/10/04 07:37:18;;;;;;;9.18;6.25;;;;;;;;;;4965217;28;20051;-73
2022/10/04 07:39:49;;;;;;;6.68;5.97;;;;;;;;;;4967409;28;20043;-73
2022/10/04 07:42:20;;;;;;;5.97;5.47;;;;;;;;;;4967353;28;20120;-73
2022/10/04 07:44:55;;;;;;;6.68;5.93;;;;;;;;;;4966813;28;20077;-73
2022/10/04 07:47:28;;;;;;;6.20;5.65;;;;;;;;;;4962564;28;20541;-72
2022/10/04 07:49:57;;;;;;;6.88;6.18;;;;;;;;;;4966899;28;20498;-73
2022/10/04 07:52:24;;;;;;;6.63;6.03;;;;;;;;;;4967452;28;20046;-73
2022/10/04 07:55:21;;;;;;;6.82;5.88;;;;;;;;;;4966658;28;20043;-72
2022/10/04 07:57:51;;;;;;;10.35;6.30;;;;;;;;;;4958798;28;20655;-73
2022/10/04 08:00:21;;;;;;;6.47;5.82;;;;;;;;;;4966771;28;20041;-73
2022/10/04 08:03:07;;;;;;;7.82;5.95;;;;;;;;;;4965664;28;20109;-73
2022/10/04 08:05:41;;;;;;;6.90;5.97;;;;;;;;;;4966307;28;20050;-74
2022/10/04 08:08:20;;;;;;;6.90;6.10;;;;;;;;;;4967025;28;20142;-73
2022/10/04 08:11:11;;;;;;;7.47;6.70;;;;;;;;;;4966825;28;20087;-73
2022/10/04 08:13:51;;;;;;;6.90;6.30;;;;;;;;;;4961856;28;20047;-72
2022/10/04 08:16:25;;;;;;;7.20;5.85;;;;;;;;;;4966493;28;20129;-73
2022/10/04 08:19:11;;;;;;;9.95;6.05;;;;;;;;;;4966525;28;20051;-73
2022/10/04 08:21:48;;;;;;;9.52;6.57;;;;;;;;;;4965858;28;20519;-74
2022/10/04 08:24:32;;;;;;;7.30;6.57;;;;;;;;;;4965881;28;20047;-73
2022/10/04 08:27:03;;;;;;;7.35;6.65;;;;;;;;;;4965270;28;20141;-73
2022/10/04 08:29:43;;;;;;;7.25;6.47;;;;;;;;;;4967324;28;20046;-71
2022/10/04 08:32:29;;;;;;;6.50;5.90;;;;;;;;;;4970590;28;20043;-73
2022/10/04 08:35:18;;;;;;;7.55;6.75;;;;;;;;;;4970276;28;20043;-72
2022/10/04 08:38:04;;;;;;;6.82;6.13;;;;;;;;;;4969268;28;20053;-72
2022/10/04 08:40:42;;;;;;;6.82;6.18;;;;;;;;;;4953179;28;20051;-73
2022/10/04 08:43:29;;;;;;;8.05;6.43;;;;;;;;;;4969648;28;20055;-72
2022/10/04 08:46:18;;;;;;;6.93;6.10;;;;;;;;;;4968184;28;20057;-73
2022/10/04 08:48:56;;;;;;;6.53;5.93;;;;;;;;;;4970672;28;20066;-73
2022/10/04 08:51:30;;;;;;;6.90;6.20;;;;;;;;;;4970920;28;20049;-73
2022/10/04 08:54:21;;;;;;;8.02;6.75;;;;;;;;;;4970633;28;20093;-74
2022/10/04 08:56:58;;;;;;;7.73;6.57;;;;;;;;;;4963208;28;20054;-75
2022/10/04 08:59:25;;;;;;;7.35;6.60;;;;;;;;;;4970344;28;20126;-73
2022/10/04 09:01:52;;;;;;;7.75;7.03;;;;;;;;;;4970131;28;20047;-74
2022/10/04 09:04:39;;;;;;;7.32;6.60;;;;;;;;;;4969523;28;20540;-74
2022/10/04 09:07:25;;;;;;;6.85;6.25;;;;;;;;;;4952227;28;20078;-74
2022/10/04 09:09:55;;;;;;;7.45;6.53;;;;;;;;;;4969779;28;20525;-73
2022/10/04 09:12:30;;;;;;;11.18;6.95;;;;;;;;;;4969972;28;20059;-72
2022/10/04 09:15:15;;;;;;;7.85;7.10;;;;;;;;;;4969510;28;20043;-75
2022/10/04 09:17:51;;;;;;;6.35;5.78;;;;;;;;;;4969718;28;20047;-74
2022/10/04 09:20:20;;;;;;;7.00;6.40;;;;;;;;;;4969723;28;20047;-73
2022/10/04 09:23:29;;;;;;;7.07;6.38;;;;;;;;;;4967683;28;20443;-73
2022/10/04 09:25:56;;;;;;;;;;;;;;;;;;4952342;28;20368;-72
2022/10/04 09:28:43;;;;;;;7.00;6.35;;;;;;;;;;4968224;28;19926;-71
2022/10/04 09:31:34;;;;;;;6.40;5.75;;;;;;;;;;4952779;28;20054;-73
2022/10/04 09:34:05;;;;;;;6.32;5.72;;;;;;;;;;4969510;28;20046;-73
2022/10/04 09:36:49;;;;;;;6.40;5.80;;;;;;;;;;4968928;28;20125;-71
2022/10/04 09:39:26;;;;;;;7.65;6.38;;;;;;;;;;4967677;28;20460;-71
2022/10/04 09:42:01;;;;;;;6.40;5.80;;;;;;;;;;4968792;28;20047;-71
2022/10/04 09:44:32;;;;;;;6.43;5.53;;;;;;;;;;4967637;28;20042;-72
2022/10/04 09:47:12;;;;;;;8.18;6.07;;;;;;;;;;4951848;28;20466;-72
2022/10/04 09:49:51;;;;;;;8.43;6.72;;;;;;;;;;4967953;28;20414;-72
2022/10/04 09:52:42;;;;;;;7.53;6.65;;;;;;;;;;4951346;28;20039;-72
2022/10/04 09:55:19;;;;;;;5.88;5.30;;;;;;;;;;4950197;28;20047;-72
2022/10/04 09:57:52;;;;;;;7.38;6.13;;;;;;;;;;4968252;28;20127;-74
2022/10/04 10:00:22;;;;;;;6.85;6.20;;;;;;;;;;4967054;28;20047;-73
2022/10/04 10:03:16;;;;;;;6.90;6.13;;;;;;;;;;4965423;28;20061;-72
2022/10/04 10:05:49;;;;;;;8.18;5.90;;;;;;;;;;4964958;28;20158;-71
2022/10/04 10:08:17;;;;;;;7.57;5.95;;;;;;;;;;4966988;28;20043;-71
2022/10/04 10:14:08;;;;;;;6.68;5.70;;;;;;;;;;4966054;28;20506;-73
2022/10/04 10:16:38;;;;;;;7.18;5.47;;;;;;;;;;4966658;28;20565;-72
2022/10/04 10:19:15;;;;;;;9.23;5.40;;;;;;;;;;4968701;28;20046;-73
2022/10/04 10:21:43;;;;;;;5.43;4.93;;;;;;;;;;4968721;28;20055;-71
2022/10/04 10:24:13;;;;;;;7.28;5.55;;;;;;;;;;4968586;28;20047;-72
2022/10/04 10:26:56;;;;;;;7.30;4.28;;;;;;;;;;4968343;28;20054;-72
2022/10/04 10:29:27;;;;;;;6.43;4.75;;;;;;;;;;4969150;28;20043;-72
2022/10/04 10:32:19;;;;;;;5.18;4.25;;;;;;;;;;4970672;28;20408;-73
2022/10/04 10:35:06;;;;;;;4.60;4.10;;;;;;;;;;4966981;28;20051;-72
2022/10/04 10:37:45;;;;;;;4.90;4.47;;;;;;;;;;4968325;28;20054;-72
2022/10/04 10:40:31;;;;;;;5.72;4.28;;;;;;;;;;4968834;28;20414;-72
2022/10/04 10:43:05;;;;;;;9.32;4.35;;;;;;;;;;4968545;28;20462;-72
2022/10/04 10:45:42;;;;;;;6.68;4.18;;;;;;;;;;4967928;28;20517;-72
2022/10/04 10:48:23;;;;;;;6.68;3.70;;;;;;;;;;4966623;28;20042;-72
2022/10/04 10:51:22;;;;;;;5.55;3.97;;;;;;;;;;4967782;28;20069;-72
2022/10/04 10:54:09;;;;;;;6.22;4.10;;;;;;;;;;4935261;28;20051;-72
2022/10/04 10:56:43;;;;;;;6.80;4.30;;;;;;;;;;4967688;28;20047;-72
2022/10/04 10:59:20;;;;;;;4.18;3.78;;;;;;;;;;4967962;28;20039;-71
2022/10/04 11:02:08;;;;;;;4.90;3.47;;;;;;;;;;4967816;28;20392;-71
2022/10/04 11:04:53;;;;;;;4.03;3.47;;;;;;;;;;4966305;28;20094;-72
2022/10/04 11:07:29;;;;;;;4.63;3.55;;;;;;;;;;4966757;28;20097;-71
2022/10/04 11:10:14;;;;;;;4.05;3.63;;;;;;;;;;4950541;28;20058;-71
2022/10/04 11:12:42;;;;;;;5.28;3.35;;;;;;;;;;4967476;28;20047;-72
2022/10/04 11:15:29;;;;;;;6.22;3.63;;;;;;;;;;4966798;28;20047;-71
2022/10/04 11:18:04;;;;;;;3.92;3.05;;;;;;;;;;4966414;28;20122;-72
2022/10/04 11:20:38;;;;;;;5.28;3.30;;;;;;;;;;4949886;28;20403;-72
2022/10/04 11:23:18;;;;;;;5.63;3.53;;;;;;;;;;4967620;28;20051;-71
2022/10/04 11:25:45;;;;;;;5.03;2.80;;;;;;;;;;4967373;28;20078;-72
2022/10/04 11:28:32;;;;;;;5.43;3.00;;;;;;;;;;4966237;28;20486;-71
2022/10/04 11:31:00;;;;;;;8.68;2.97;;;;;;;;;;4967389;28;20518;-72
2022/10/04 11:33:55;;;;;;;4.65;3.00;;;;;;;;;;4966266;28;20454;-71
2022/10/04 11:36:26;;;;;;;3.88;2.95;;;;;;;;;;4965564;28;20049;-71
2022/10/04 11:39:21;;;;;;;4.10;2.50;;;;;;;;;;4967583;28;20191;-70
2022/10/04 11:41:51;;;;;;;6.43;4.45;;;;;;;;;;4967024;28;20311;-71
2022/10/04 11:44:34;;;;;;;4.93;2.60;;;;;;;;;;4966384;28;20075;-70
2022/10/04 11:47:08;;;;;;;4.30;2.55;;;;;;;;;;4967370;28;20093;-72
2022/10/04 11:49:55;;;;;;;7.28;2.15;;;;;;;;;;4966022;28;20475;-71
2022/10/04 11:52:35;;;;;;;3.63;2.40;;;;;;;;;;4967199;28;20051;-70
2022/10/04 11:55:07;;;;;;;3.10;2.00;;;;;;;;;;4966035;28;20451;-71
2022/10/04 11:57:41;;;;;;;4.03;1.80;;;;;;;;;;4957596;28;20047;-69
2022/10/04 12:00:14;;;;;;;5.07;2.30;;;;;;;;;;4964812;28;20050;-70
2022/10/04 12:03:03;;;;;;;3.03;2.10;;;;;;;;;;4965295;28;20043;-70
2022/10/04 12:05:50;;;;;;;2.83;2.22;;;;;;;;;;4968028;28;20124;-69
2022/10/04 12:08:20;;;;;;;3.58;1.52;;;;;;;;;;4968779;28;20073;-73
2022/10/04 12:11:08;;;;;;;5.03;1.50;;;;;;;;;;4972663;28;20051;-70
2022/10/04 12:13:41;;;;;;;3.72;1.20;;;;;;;;;;4971767;28;20049;-70
2022/10/04 12:16:26;;;;;;;4.97;1.48;;;;;;;;;;4970689;28;20047;-70
2022/10/04 12:19:00;;;;;;;2.78;1.70;;;;;;;;;;4969202;28;20073;-70
2022/10/04 12:21:27;;;;;;;2.65;2.08;;;;;;;;;;4971866;28;20051;-71
2022/10/04 12:24:04;;;;;;;2.58;1.20;;;;;;;;;;4970194;28;20051;-71
2022/10/04 12:26:51;;;;;;;5.05;1.50;;;;;;;;;;4969085;28;20523;-72
2022/10/04 12:29:32;;;;;;;2.55;1.70;;;;;;;;;;4971021;28;20039;-70
2022/10/04 12:32:03;;;;;;;1.60;1.20;;;;;;;;;;4969369;28;20039;-70
2022/10/04 12:34:31;;;;;;;;;;;;;;;;;;4970530;28;20042;-71
2022/10/04 12:37:17;;;;;;;1.35;1.23;;;;;;;;;;4969992;28;20053;-70
2022/10/04 12:39:44;;;;;;;0.70;0.70;;;;;;;;;;4970780;28;20474;-71
2022/10/04 12:42:15;;;;;;;0.93;0.50;;;;;;;;;;4970542;28;20042;-70
2022/10/04 12:45:02;;;;;;;0.77;0.77;;;;;;;;;;4969380;28;20396;-71
2022/10/04 12:47:38;;;;;;;1.77;0.95;;;;;;;;;;4970001;28;20875;-70
2022/10/04 12:50:12;;;;;;;2.15;1.08;;;;;;;;;;4970165;28;20059;-69
2022/10/04 12:52:53;;;;;;;2.67;1.10;;;;;;;;;;4969990;28;20127;-70
2022/10/04 12:55:40;;;;;;;0.80;0.80;;;;;;;;;;4952084;28;20105;-69
2022/10/04 12:58:22;;;;;;;2.17;1.15;;;;;;;;;;4970543;28;20081;-70
2022/10/04 13:00:50;;;;;;;1.83;1.08;;;;;;;;;;4947234;28;20058;-70
2022/10/04 13:03:35;;;;;;;2.35;1.02;;;;;;;;;;4970255;28;20205;-71
2022/10/04 13:06:14;;;;;;;1.08;1.00;;;;;;;;;;4969527;28;20499;-70
2022/10/04 13:08:51;;;;;;;1.95;0.80;;;;;;;;;;4967823;28;20054;-70
2022/10/04 13:11:38;;;;;;;2.70;1.00;;;;;;;;;;4969443;28;20109;-69
2022/10/04 13:14:12;;;;;;;3.53;1.20;;;;;;;;;;4968584;28;20400;-70
2022/10/04 13:16:43;;;;;;;1.65;1.10;;;;;;;;;;4968133;28;20053;-70
2022/10/04 13:19:36;;;;;;;1.45;1.02;;;;;;;;;;4968184;28;20070;-71
2022/10/04 13:22:10;;;;;;;2.67;1.17;;;;;;;;;;4952365;28;20046;-70
2022/10/04 13:24:57;;;;;;;1.35;0.95;;;;;;;;;;4966284;28;20045;-70
2022/10/04 13:27:40;;;;;;;1.00;0.80;;;;;;;;;;4966139;28;20062;-70
2022/10/04 13:30:22;;;;;;;3.55;1.45;;;;;;;;;;4957585;28;20087;-71
2022/10/04 13:32:49;;;;;;;;;;;;;;;;;;4969837;28;20128;-70
2022/10/04 13:35:20;;;;;;;0.73;0.73;;;;;;;;;;4967150;28;19967;-70
2022/10/04 13:38:06;;;;;;;7.43;1.83;;;;;;;;;;4967007;28;20175;-71
2022/10/04 13:40:40;;;;;;;2.25;1.38;;;;;;;;;;4963661;28;20054;-70
2022/10/04 13:43:23;;;;;;;2.08;1.15;;;;;;;;;;4967076;28;20126;-70
2022/10/04 13:46:00;;;;;;;1.52;0.70;;;;;;;;;;4938690;28;20119;-70
2022/10/04 13:48:50;;;;;;;0.93;0.70;;;;;;;;;;4957964;28;20089;-70
2022/10/04 13:51:42;;;;;;;1.00;0.50;;;;;;;;;;4961069;28;20042;-69
2022/10/04 13:57:15;;;;;;;0.70;0.70;;;;;;;;;;4969676;28;20071;-71
2022/10/04 13:59:59;;;;;;;1.95;0.70;;;;;;;;;;4969322;28;20051;-70
2022/10/04 14:02:26;;;;;;;1.13;0.90;;;;;;;;;;4967083;28;20133;-70
2022/10/04 14:05:14;;;;;;;0.88;0.70;;;;;;;;;;4948849;28;20367;-69
2022/10/04 14:07:48;;;;;;;0.63;0.57;;;;;;;;;;4965561;28;20078;-69
2022/10/04 14:10:18;;;;;;;0.52;0.50;;;;;;;;;;4966315;28;20035;-69
2022/10/04 14:12:49;;;;;;;1.20;0.60;;;;;;;;;;4968458;28;20057;-70
2022/10/04 14:15:20;;;;;;;2.17;0.60;;;;;;;;;;4985835;28;20047;-69
2022/10/04 14:17:55;;;;;;;1.40;0.80;;;;;;;;;;4986116;28;20046;-70
2022/10/04 14:20:31;;;;;;;0.85;0.70;;;;;;;;;;4988416;28;20054;-70
2022/10/04 14:23:19;;;;;;;0.82;0.82;;;;;;;;;;4970384;28;20060;-71
2022/10/04 14:25:50;;;;;;;1.42;1.33;;;;;;;;;;4986840;28;20047;-71
2022/10/04 14:28:26;;;;;;;0.82;0.75;;;;;;;;;;4987786;28;20133;-70
2022/10/04 14:31:13;;;;;;;1.88;0.88;;;;;;;;;;4970475;28;20050;-71
2022/10/04 14:33:54;;;;;;;1.50;0.90;;;;;;;;;;4988002;28;20047;-71
2022/10/04 14:36:41;;;;;;;3.05;0.98;;;;;;;;;;4987424;28;20069;-70
2022/10/04 14:39:19;;;;;;;10.23;9.23;;;;;;;;;;4970159;28;20467;-71
2022/10/04 14:42:08;;;;;;;3.50;3.30;;;;;;;;;;4987790;28;20112;-70
2022/10/04 14:44:50;;;;;;;4.05;3.75;;;;;;;;;;4966836;28;20061;-70
2022/10/04 14:47:41;;;;;;;3.30;3.00;;;;;;;;;;4966458;28;20117;-71
2022/10/04 14:50:21;;;;;;;2.70;2.53;;;;;;;;;;4966638;28;20059;-70
2022/10/04 14:52:57;;;;;;;6.07;3.92;;;;;;;;;;4968048;28;20046;-71
2022/10/04 14:55:43;;;;;;;3.22;2.53;;;;;;;;;;4968112;28;20062;-70
2022/10/04 14:58:32;;;;;;;2.65;2.45;;;;;;;;;;4967121;28;20129;-70
2022/10/04 15:01:19;;;;;;;2.10;1.90;;;;;;;;;;4967779;28;20466;-69
2022/10/04 15:03:54;;;;;;;5.03;2.25;;;;;;;;;;4967544;28;20082;-71
2022/10/04 15:06:22;;;;;;;3.70;1.90;;;;;;;;;;4966510;28;20109;-70
2022/10/04 15:08:55;;;;;;;2.58;1.90;;;;;;;;;;4967697;28;20138;-71
2022/10/04 15:11:37;;;;;;;2.38;1.50;;;;;;;;;;4967244;28;20046;-71
2022/10/04 15:14:20;;;;;;;2.30;1.30;;;;;;;;;;4967428;28;20054;-71
2022/10/04 15:16:52;;;;;;;1.95;1.10;;;;;;;;;;4965385;28;20047;-70
2022/10/04 15:19:20;;;;;;;1.70;1.40;;;;;;;;;;4964686;28;20050;-71
2022/10/04 15:21:58;;;;;;;1.80;1.10;;;;;;;;;;4962031;28;20075;-70
2022/10/04 15:24:28;;;;;;;1.70;1.60;;;;;;;;;;4966577;28;20109;-70
2022/10/04 15:27:14;;;;;;;2.00;1.40;;;;;;;;;;4967265;28;20097;-69
2022/10/04 15:29:51;;;;;;;4.00;2.70;;;;;;;;;;4967700;28;20051;-70
2022/10/04 15:32:25;;;;;;;6.03;2.20;;;;;;;;;;4967519;28;20039;-70
2022/10/04 15:35:14;;;;;;;1.95;1.60;;;;;;;;;;4966674;28;20536;-71
2022/10/04 15:37:50;;;;;;;5.63;2.10;;;;;;;;;;4966242;28;20396;-71
2022/10/04 15:40:21;;;;;;;2.40;2.20;;;;;;;;;;4966569;28;20050;-69
2022/10/04 15:42:59;;;;;;;2.13;1.85;;;;;;;;;;4967547;28;20051;-70
2022/10/04 15:45:49;;;;;;;1.80;1.70;;;;;;;;;;4967450;28;20533;-70
2022/10/04 15:48:20;;;;;;;4.22;2.10;;;;;;;;;;4960196;28;20050;-70